PWSweather.com
Personal Weather Stations
Station Observations
METEOC500
Santo Antonio, FunchalPT 2020

Santo AntonioFunchalPT 2020

Lat: 32.678227, Lon: -16.945054

Elevation: 1669.94751

Station Type: WH Series

Latest ConditionsUpdated 6:29:20 PM GMT Tuesday, Nov 12, 2019
Currently Today's Max Today's Min Today's Average
Temperature 62.8°F17.1°C 68.9°F20.5°C 57.6°F14.2°C 62.0°F16.7°C
Dew Point 59.7°F15.4°C 60.4°F15.8°C 50.9°F10.5°C 56.4°F13.6°C
Winds Calm Calm 9.6 mph -15.4 kmh - - 3.6 mph 5.8 kmh
Wind Gusts 4.9 mph7.9 kmh 15.0 mph24.1 kmh - -
Humidity 90% 90% 68% 82%
Pressure 30.19 in1022.4 mb 30.29 in1025.7 mb 30.18 in1022.0 mb -
Hour Temp Dew Point Humidity Winds Wind Gusts Pressure Precip Precip Rate Daily Precip Total
06:29 PM 62.8°F17.1°C 59.7°F15.4°C 90% Calm Calm 4.9 mph7.9 kmh 30.19 in1022.4 mb 0.00 in0.0 mm 0.00 in0.0 mm 0.00 in0.0 mm
06:14 PM 63.0°F17.2°C 59.9°F15.5°C 90% 0.2 mph S0.3 kmh S 4.9 mph7.9 kmh 30.19 in1022.4 mb 0.00 in0.0 mm 0.00 in0.0 mm 0.00 in0.0 mm
05:59 PM 63.1°F17.3°C 59.9°F15.5°C 89% 2.9 mph SE4.7 kmh SE 7.6 mph12.2 kmh 30.19 in1022.4 mb 0.00 in0.0 mm 0.00 in0.0 mm 0.00 in0.0 mm
05:44 PM 63.5°F17.5°C 60.3°F15.7°C 89% 3.1 mph S5.0 kmh S 7.6 mph12.2 kmh 30.19 in1022.4 mb 0.00 in0.0 mm 0.00 in0.0 mm 0.00 in0.0 mm
05:29 PM 63.7°F17.6°C 59.7°F15.4°C 87% 3.8 mph SE6.1 kmh SE 7.6 mph12.2 kmh 30.20 in1022.7 mb 0.00 in0.0 mm 0.00 in0.0 mm 0.00 in0.0 mm
05:14 PM 64.0°F17.8°C 60.1°F15.6°C 87% 0.7 mph S1.1 kmh S 7.6 mph12.2 kmh 30.19 in1022.4 mb 0.00 in0.0 mm 0.00 in0.0 mm 0.00 in0.0 mm
04:59 PM 64.4°F18.0°C 59.7°F15.4°C 85% 3.1 mph SSE5.0 kmh SSE 7.6 mph12.2 kmh 30.19 in1022.4 mb 0.00 in0.0 mm 0.00 in0.0 mm 0.00 in0.0 mm
04:44 PM 64.8°F18.2°C 60.1°F15.6°C 85% 2.5 mph ESE4.0 kmh ESE 7.6 mph12.2 kmh 30.19 in1022.4 mb 0.00 in0.0 mm 0.00 in0.0 mm 0.00 in0.0 mm
04:29 PM 64.6°F18.1°C 59.7°F15.4°C 84% Calm Calm 7.6 mph12.2 kmh 30.19 in1022.4 mb 0.00 in0.0 mm 0.00 in0.0 mm 0.00 in0.0 mm
04:14 PM 64.6°F18.1°C 59.7°F15.4°C 84% Calm Calm 7.6 mph12.2 kmh 30.19 in1022.4 mb 0.00 in0.0 mm 0.00 in0.0 mm 0.00 in0.0 mm
03:58 PM 64.8°F18.2°C 60.4°F15.8°C 86% 2.2 mph SSW3.5 kmh SSW 10.1 mph16.3 kmh 30.18 in1022.0 mb 0.00 in0.0 mm 0.00 in0.0 mm 0.00 in0.0 mm
03:43 PM 64.9°F18.3°C 59.9°F15.5°C 84% 0.2 mph ESE0.3 kmh ESE 7.6 mph12.2 kmh 30.18 in1022.0 mb 0.00 in0.0 mm 0.00 in0.0 mm 0.00 in0.0 mm
03:28 PM 64.9°F18.3°C 59.4°F15.2°C 82% 1.3 mph S2.1 kmh S 10.1 mph16.3 kmh 30.19 in1022.4 mb 0.00 in0.0 mm 0.00 in0.0 mm 0.00 in0.0 mm
03:13 PM 65.1°F18.4°C 59.5°F15.3°C 82% 3.1 mph S5.0 kmh S 10.1 mph16.3 kmh 30.19 in1022.4 mb 0.00 in0.0 mm 0.00 in0.0 mm 0.00 in0.0 mm
02:58 PM 65.3°F18.5°C 59.7°F15.4°C 82% 1.8 mph SE2.9 kmh SE 10.1 mph16.3 kmh 30.19 in1022.4 mb 0.00 in0.0 mm 0.00 in0.0 mm 0.00 in0.0 mm
02:43 PM 65.5°F18.6°C 59.5°F15.3°C 81% 7.6 mph S12.2 kmh S 10.1 mph16.3 kmh 30.19 in1022.4 mb 0.00 in0.0 mm 0.00 in0.0 mm 0.00 in0.0 mm
02:28 PM 65.8°F18.8°C 59.5°F15.3°C 80% 3.4 mph S5.5 kmh S 10.1 mph16.3 kmh 30.19 in1022.4 mb 0.00 in0.0 mm 0.00 in0.0 mm 0.00 in0.0 mm
02:13 PM 66.0°F18.9°C 58.6°F14.8°C 77% 0.9 mph S1.4 kmh S 12.5 mph20.1 kmh 30.20 in1022.7 mb 0.00 in0.0 mm 0.00 in0.0 mm 0.00 in0.0 mm
01:58 PM 65.7°F18.7°C 59.0°F15.0°C 79% 1.3 mph SSE2.1 kmh SSE 7.6 mph12.2 kmh 30.21 in1023.0 mb 0.00 in0.0 mm 0.00 in0.0 mm 0.00 in0.0 mm
01:43 PM 66.0°F18.9°C 59.4°F15.2°C 79% 0.7 mph E1.1 kmh E 10.1 mph16.3 kmh 30.22 in1023.4 mb 0.00 in0.0 mm 0.00 in0.0 mm 0.00 in0.0 mm
01:28 PM 66.4°F19.1°C 59.7°F15.4°C 79% 1.8 mph SW2.9 kmh SW 10.1 mph16.3 kmh 30.22 in1023.4 mb 0.00 in0.0 mm 0.00 in0.0 mm 0.00 in0.0 mm
01:13 PM 66.6°F19.2°C 59.2°F15.1°C 77% 1.6 mph S2.6 kmh S 10.1 mph16.3 kmh 30.22 in1023.4 mb 0.00 in0.0 mm 0.00 in0.0 mm 0.00 in0.0 mm
12:58 PM 66.7°F19.3°C 59.7°F15.4°C 78% 4.7 mph SSE7.6 kmh SSE 10.1 mph16.3 kmh 30.23 in1023.7 mb 0.00 in0.0 mm 0.00 in0.0 mm 0.00 in0.0 mm
12:43 PM 66.6°F19.2°C 59.2°F15.1°C 77% 2.2 mph S3.5 kmh S 10.1 mph16.3 kmh 30.24 in1024.0 mb 0.00 in0.0 mm 0.00 in0.0 mm 0.00 in0.0 mm
12:28 PM 66.7°F19.3°C 59.0°F15.0°C 76% 7.2 mph SE11.6 kmh SE 10.1 mph16.3 kmh 30.24 in1024.0 mb 0.00 in0.0 mm 0.00 in0.0 mm 0.00 in0.0 mm
12:13 PM 67.5°F19.7°C 59.5°F15.3°C 76% 2.9 mph SE4.7 kmh SE 12.5 mph20.1 kmh 30.25 in1024.4 mb 0.00 in0.0 mm 0.00 in0.0 mm 0.00 in0.0 mm
11:58 AM 68.4°F20.2°C 59.4°F15.2°C 73% 4.9 mph E7.9 kmh E 12.5 mph20.1 kmh 30.25 in1024.4 mb 0.00 in0.0 mm 0.00 in0.0 mm 0.00 in0.0 mm
11:43 AM 68.9°F20.5°C 60.3°F15.7°C 74% 3.1 mph S5.0 kmh S 10.1 mph16.3 kmh 30.26 in1024.7 mb 0.00 in0.0 mm 0.00 in0.0 mm 0.00 in0.0 mm
11:28 AM 68.7°F20.4°C 59.4°F15.2°C 72% 2.9 mph SSW4.7 kmh SSW 10.1 mph16.3 kmh 30.26 in1024.7 mb 0.00 in0.0 mm 0.00 in0.0 mm 0.00 in0.0 mm
11:13 AM 68.5°F20.3°C 58.3°F14.6°C 70% 1.3 mph S2.1 kmh S 12.5 mph20.1 kmh 30.26 in1024.7 mb 0.00 in0.0 mm 0.00 in0.0 mm 0.00 in0.0 mm
10:58 AM 67.3°F19.6°C 56.3°F13.5°C 68% 4.0 mph S6.4 kmh S 7.6 mph12.2 kmh 30.26 in1024.7 mb 0.00 in0.0 mm 0.00 in0.0 mm 0.00 in0.0 mm
10:43 AM 66.7°F19.3°C 57.7°F14.3°C 73% 4.0 mph SE6.4 kmh SE 12.5 mph20.1 kmh 30.26 in1024.7 mb 0.00 in0.0 mm 0.00 in0.0 mm 0.00 in0.0 mm
10:28 AM 67.5°F19.7°C 59.2°F15.1°C 75% 1.3 mph SSW2.1 kmh SSW 7.6 mph12.2 kmh 30.26 in1024.7 mb 0.00 in0.0 mm 0.00 in0.0 mm 0.00 in0.0 mm
10:13 AM 67.6°F19.8°C 58.3°F14.6°C 72% Calm Calm 7.6 mph12.2 kmh 30.26 in1024.7 mb 0.00 in0.0 mm 0.00 in0.0 mm 0.00 in0.0 mm
09:58 AM 67.1°F19.5°C 57.7°F14.3°C 72% 6.0 mph SE9.7 kmh SE 7.6 mph12.2 kmh 30.26 in1024.7 mb 0.00 in0.0 mm 0.00 in0.0 mm 0.00 in0.0 mm
09:43 AM 66.6°F19.2°C 58.1°F14.5°C 74% Calm Calm 4.9 mph7.9 kmh 30.26 in1024.7 mb 0.00 in0.0 mm 0.00 in0.0 mm 0.00 in0.0 mm
09:28 AM 65.5°F18.6°C 57.7°F14.3°C 76% 1.3 mph ENE2.1 kmh ENE 4.9 mph7.9 kmh 30.27 in1025.1 mb 0.00 in0.0 mm 0.00 in0.0 mm 0.00 in0.0 mm
09:12 AM 62.6°F17.0°C 55.2°F12.9°C 77% Calm Calm 2.5 mph4.0 kmh 30.27 in1025.1 mb 0.00 in0.0 mm 0.00 in0.0 mm 0.00 in0.0 mm
08:57 AM 59.7°F15.4°C 55.2°F12.9°C 85% Calm Calm 7.6 mph12.2 kmh 30.26 in1024.7 mb 0.00 in0.0 mm 0.00 in0.0 mm 0.00 in0.0 mm
08:42 AM 58.8°F14.9°C 55.0°F12.8°C 87% 1.3 mph NW2.1 kmh NW 7.6 mph12.2 kmh 30.26 in1024.7 mb 0.00 in0.0 mm 0.00 in0.0 mm 0.00 in0.0 mm
08:27 AM 58.5°F14.7°C 54.3°F12.4°C 86% Calm Calm 7.6 mph12.2 kmh 30.25 in1024.4 mb 0.00 in0.0 mm 0.00 in0.0 mm 0.00 in0.0 mm
08:12 AM 58.5°F14.7°C 54.7°F12.6°C 87% 6.3 mph NNW10.1 kmh NNW 10.1 mph16.3 kmh 30.25 in1024.4 mb 0.00 in0.0 mm 0.00 in0.0 mm 0.00 in0.0 mm
07:57 AM 58.3°F14.6°C 54.5°F12.5°C 87% 6.3 mph NNW10.1 kmh NNW 10.1 mph16.3 kmh 30.25 in1024.4 mb 0.00 in0.0 mm 0.00 in0.0 mm 0.00 in0.0 mm
07:42 AM 58.3°F14.6°C 54.1°F12.3°C 86% 4.9 mph NNW7.9 kmh NNW 12.5 mph20.1 kmh 30.25 in1024.4 mb 0.00 in0.0 mm 0.00 in0.0 mm 0.00 in0.0 mm
07:27 AM 58.1°F14.5°C 54.0°F12.2°C 86% 5.6 mph NNW9.0 kmh NNW 10.1 mph16.3 kmh 30.25 in1024.4 mb 0.00 in0.0 mm 0.00 in0.0 mm 0.00 in0.0 mm
07:12 AM 58.1°F14.5°C 54.3°F12.4°C 87% 5.4 mph NNW8.7 kmh NNW 10.1 mph16.3 kmh 30.24 in1024.0 mb 0.00 in0.0 mm 0.00 in0.0 mm 0.00 in0.0 mm
06:57 AM 58.3°F14.6°C 54.5°F12.5°C 87% 5.6 mph NNW9.0 kmh NNW 10.1 mph16.3 kmh 30.24 in1024.0 mb 0.00 in0.0 mm 0.00 in0.0 mm 0.00 in0.0 mm
06:42 AM 58.3°F14.6°C 54.7°F12.6°C 88% 8.7 mph NNW14.0 kmh NNW 10.1 mph16.3 kmh 30.24 in1024.0 mb 0.00 in0.0 mm 0.00 in0.0 mm 0.00 in0.0 mm
06:27 AM 57.9°F14.4°C 54.3°F12.4°C 88% 5.6 mph NNW9.0 kmh NNW 7.6 mph12.2 kmh 30.24 in1024.0 mb 0.00 in0.0 mm 0.00 in0.0 mm 0.00 in0.0 mm
06:12 AM 57.6°F14.2°C 54.3°F12.4°C 89% 3.1 mph NNW5.0 kmh NNW 7.6 mph12.2 kmh 30.24 in1024.0 mb 0.00 in0.0 mm 0.00 in0.0 mm 0.00 in0.0 mm
05:57 AM 57.9°F14.4°C 54.1°F12.3°C 87% 3.8 mph NNW6.1 kmh NNW 7.6 mph12.2 kmh 30.24 in1024.0 mb 0.00 in0.0 mm 0.00 in0.0 mm 0.00 in0.0 mm
05:42 AM 58.1°F14.5°C 54.3°F12.4°C 87% 5.4 mph NNW8.7 kmh NNW 10.1 mph16.3 kmh 30.23 in1023.7 mb 0.00 in0.0 mm 0.00 in0.0 mm 0.00 in0.0 mm
05:27 AM 58.1°F14.5°C 54.3°F12.4°C 87% 5.6 mph NW9.0 kmh NW 10.1 mph16.3 kmh 30.23 in1023.7 mb 0.00 in0.0 mm 0.00 in0.0 mm 0.00 in0.0 mm
05:12 AM 57.9°F14.4°C 54.1°F12.3°C 87% 4.7 mph NW7.6 kmh NW 10.1 mph16.3 kmh 30.23 in1023.7 mb 0.00 in0.0 mm 0.00 in0.0 mm 0.00 in0.0 mm
04:57 AM 57.7°F14.3°C 53.2°F11.8°C 85% 4.9 mph NNW7.9 kmh NNW 10.1 mph16.3 kmh 30.24 in1024.0 mb 0.00 in0.0 mm 0.00 in0.0 mm 0.00 in0.0 mm
04:42 AM 57.6°F14.2°C 52.7°F11.5°C 84% 6.9 mph N11.1 kmh N 10.1 mph16.3 kmh 30.24 in1024.0 mb 0.00 in0.0 mm 0.00 in0.0 mm 0.00 in0.0 mm
04:27 AM 57.6°F14.2°C 52.5°F11.4°C 83% 8.5 mph NNW13.7 kmh NNW 10.1 mph16.3 kmh 30.24 in1024.0 mb 0.00 in0.0 mm 0.00 in0.0 mm 0.00 in0.0 mm
04:12 AM 57.7°F14.3°C 54.0°F12.2°C 87% 6.0 mph NNW9.7 kmh NNW 7.6 mph12.2 kmh 30.24 in1024.0 mb 0.00 in0.0 mm 0.00 in0.0 mm 0.00 in0.0 mm
03:57 AM 57.9°F14.4°C 54.1°F12.3°C 87% 3.1 mph NW5.0 kmh NW 10.1 mph16.3 kmh 30.25 in1024.4 mb 0.00 in0.0 mm 0.00 in0.0 mm 0.00 in0.0 mm
03:42 AM 57.7°F14.3°C 53.6°F12.0°C 86% 5.4 mph NNW8.7 kmh NNW 7.6 mph12.2 kmh 30.25 in1024.4 mb 0.00 in0.0 mm 0.00 in0.0 mm 0.00 in0.0 mm
03:27 AM 57.6°F14.2°C 52.5°F11.4°C 83% 5.4 mph NW8.7 kmh NW 10.1 mph16.3 kmh 30.25 in1024.4 mb 0.00 in0.0 mm 0.00 in0.0 mm 0.00 in0.0 mm
03:12 AM 57.6°F14.2°C 52.2°F11.2°C 82% 3.1 mph NW5.0 kmh NW 12.5 mph20.1 kmh 30.26 in1024.7 mb 0.00 in0.0 mm 0.00 in0.0 mm 0.00 in0.0 mm
02:57 AM 57.6°F14.2°C 52.2°F11.2°C 82% 6.0 mph NW9.7 kmh NW 10.1 mph16.3 kmh 30.26 in1024.7 mb 0.00 in0.0 mm 0.00 in0.0 mm 0.00 in0.0 mm
02:42 AM 57.7°F14.3°C 52.0°F11.1°C 81% 5.4 mph N8.7 kmh N 10.1 mph16.3 kmh 30.26 in1024.7 mb 0.00 in0.0 mm 0.00 in0.0 mm 0.00 in0.0 mm
02:27 AM 57.9°F14.4°C 52.2°F11.2°C 81% 7.6 mph NNW12.2 kmh NNW 15.0 mph24.1 kmh 30.26 in1024.7 mb 0.00 in0.0 mm 0.00 in0.0 mm 0.00 in0.0 mm
02:12 AM 57.9°F14.4°C 52.7°F11.5°C 83% 4.5 mph NNW7.2 kmh NNW 12.5 mph20.1 kmh 30.27 in1025.1 mb 0.00 in0.0 mm 0.00 in0.0 mm 0.00 in0.0 mm
01:57 AM 58.3°F14.6°C 52.5°F11.4°C 81% 3.1 mph NNW5.0 kmh NNW 10.1 mph16.3 kmh 30.26 in1024.7 mb 0.00 in0.0 mm 0.00 in0.0 mm 0.00 in0.0 mm
01:41 AM 58.5°F14.7°C 53.6°F12.0°C 84% 4.7 mph NNW7.6 kmh NNW 12.5 mph20.1 kmh 30.26 in1024.7 mb 0.00 in0.0 mm 0.00 in0.0 mm 0.00 in0.0 mm
01:26 AM 58.3°F14.6°C 52.9°F11.6°C 82% 9.6 mph NNW15.4 kmh NNW 12.5 mph20.1 kmh 30.27 in1025.1 mb 0.00 in0.0 mm 0.00 in0.0 mm 0.00 in0.0 mm
01:11 AM 58.1°F14.5°C 52.3°F11.3°C 81% 2.9 mph NW4.7 kmh NW 10.1 mph16.3 kmh 30.27 in1025.1 mb 0.00 in0.0 mm 0.00 in0.0 mm 0.00 in0.0 mm
12:56 AM 58.1°F14.5°C 51.6°F10.9°C 79% 4.9 mph N7.9 kmh N 12.5 mph20.1 kmh 30.28 in1025.4 mb 0.00 in0.0 mm 0.00 in0.0 mm 0.00 in0.0 mm
12:41 AM 57.9°F14.4°C 51.4°F10.8°C 79% 4.5 mph NNW7.2 kmh NNW 10.1 mph16.3 kmh 30.27 in1025.1 mb 0.00 in0.0 mm 0.00 in0.0 mm 0.00 in0.0 mm
12:26 AM 57.7°F14.3°C 50.9°F10.5°C 78% 6.5 mph NNW10.5 kmh NNW 10.1 mph16.3 kmh 30.29 in1025.7 mb 0.00 in0.0 mm 0.00 in0.0 mm 0.00 in0.0 mm
12:11 AM 58.1°F14.5°C 52.7°F11.5°C 82% 3.1 mph NNW5.0 kmh NNW 7.6 mph12.2 kmh 30.29 in1025.7 mb 0.00 in0.0 mm 0.00 in0.0 mm 0.00 in0.0 mm